sensor_id;sensor_type;location;lat;lon;timestamp;P1;durP1;ratioP1;P2;durP2;ratioP2
48651;SDS011;34442;52.362;-1.302;2022-07-10T00:00:41;1.30;;;0.75;;
48651;SDS011;34442;52.362;-1.302;2022-07-10T00:03:07;1.20;;;0.85;;
48651;SDS011;34442;52.362;-1.302;2022-07-10T00:05:33;1.52;;;0.80;;
48651;SDS011;34442;52.362;-1.302;2022-07-10T00:08:03;1.40;;;0.88;;
48651;SDS011;34442;52.362;-1.302;2022-07-10T00:10:29;0.98;;;0.80;;
48651;SDS011;34442;52.362;-1.302;2022-07-10T00:12:55;1.90;;;1.00;;
48651;SDS011;34442;52.362;-1.302;2022-07-10T00:15:21;1.27;;;0.80;;
48651;SDS011;34442;52.362;-1.302;2022-07-10T00:17:47;1.55;;;0.90;;
48651;SDS011;34442;52.362;-1.302;2022-07-10T00:20:15;1.17;;;0.80;;
48651;SDS011;34442;52.362;-1.302;2022-07-10T00:22:42;1.52;;;0.90;;
48651;SDS011;34442;52.362;-1.302;2022-07-10T00:25:12;1.02;;;0.70;;
48651;SDS011;34442;52.362;-1.302;2022-07-10T00:27:39;2.05;;;0.85;;
48651;SDS011;34442;52.362;-1.302;2022-07-10T00:30:07;1.92;;;1.00;;
48651;SDS011;34442;52.362;-1.302;2022-07-10T00:32:34;0.95;;;0.80;;
48651;SDS011;34442;52.362;-1.302;2022-07-10T00:35:00;1.95;;;1.02;;
48651;SDS011;34442;52.362;-1.302;2022-07-10T00:37:27;2.55;;;1.13;;
48651;SDS011;34442;52.362;-1.302;2022-07-10T00:39:54;1.75;;;0.90;;
48651;SDS011;34442;52.362;-1.302;2022-07-10T00:42:20;1.02;;;0.90;;
48651;SDS011;34442;52.362;-1.302;2022-07-10T00:44:47;3.50;;;0.90;;
48651;SDS011;34442;52.362;-1.302;2022-07-10T00:47:13;0.98;;;0.90;;
48651;SDS011;34442;52.362;-1.302;2022-07-10T00:49:43;1.13;;;0.93;;
48651;SDS011;34442;52.362;-1.302;2022-07-10T00:52:12;2.35;;;0.90;;
48651;SDS011;34442;52.362;-1.302;2022-07-10T00:54:44;1.65;;;1.00;;
48651;SDS011;34442;52.362;-1.302;2022-07-10T00:57:12;5.75;;;1.55;;
48651;SDS011;34442;52.362;-1.302;2022-07-10T00:59:40;1.92;;;1.10;;
48651;SDS011;34442;52.362;-1.302;2022-07-10T01:02:06;0.93;;;0.68;;
48651;SDS011;34442;52.362;-1.302;2022-07-10T01:04:33;1.13;;;0.75;;
48651;SDS011;34442;52.362;-1.302;2022-07-10T01:06:59;1.45;;;1.00;;
48651;SDS011;34442;52.362;-1.302;2022-07-10T01:09:26;1.23;;;1.00;;
48651;SDS011;34442;52.362;-1.302;2022-07-10T01:11:56;1.20;;;1.00;;
48651;SDS011;34442;52.362;-1.302;2022-07-10T01:14:25;1.20;;;0.90;;
48651;SDS011;34442;52.362;-1.302;2022-07-10T01:16:53;1.60;;;0.98;;
48651;SDS011;34442;52.362;-1.302;2022-07-10T01:19:20;0.90;;;0.77;;
48651;SDS011;34442;52.362;-1.302;2022-07-10T01:21:46;1.70;;;0.98;;
48651;SDS011;34442;52.362;-1.302;2022-07-10T01:24:12;0.80;;;0.80;;
48651;SDS011;34442;52.362;-1.302;2022-07-10T01:26:38;1.30;;;0.80;;
48651;SDS011;34442;52.362;-1.302;2022-07-10T01:29:08;0.82;;;0.70;;
48651;SDS011;34442;52.362;-1.302;2022-07-10T01:31:36;1.40;;;1.00;;
48651;SDS011;34442;52.362;-1.302;2022-07-10T01:34:05;1.33;;;1.00;;
48651;SDS011;34442;52.362;-1.302;2022-07-10T01:36:34;1.58;;;0.95;;
48651;SDS011;34442;52.362;-1.302;2022-07-10T01:39:00;1.33;;;0.80;;
48651;SDS011;34442;52.362;-1.302;2022-07-10T01:41:26;1.65;;;0.93;;
48651;SDS011;34442;52.362;-1.302;2022-07-10T01:43:53;1.15;;;0.80;;
48651;SDS011;34442;52.362;-1.302;2022-07-10T01:46:19;1.08;;;0.90;;
48651;SDS011;34442;52.362;-1.302;2022-07-10T01:48:46;1.05;;;0.90;;
48651;SDS011;34442;52.362;-1.302;2022-07-10T01:51:12;1.38;;;0.80;;
48651;SDS011;34442;52.362;-1.302;2022-07-10T01:53:39;1.50;;;0.82;;
48651;SDS011;34442;52.362;-1.302;2022-07-10T01:56:06;1.58;;;0.98;;
48651;SDS011;34442;52.362;-1.302;2022-07-10T01:58:34;1.65;;;0.90;;
48651;SDS011;34442;52.362;-1.302;2022-07-10T02:01:01;1.15;;;0.95;;
48651;SDS011;34442;52.362;-1.302;2022-07-10T02:03:28;2.13;;;0.90;;
48651;SDS011;34442;52.362;-1.302;2022-07-10T02:06:14;1.52;;;1.00;;
48651;SDS011;34442;52.362;-1.302;2022-07-10T02:08:40;1.27;;;1.10;;
48651;SDS011;34442;52.362;-1.302;2022-07-10T02:11:06;3.90;;;1.30;;
48651;SDS011;34442;52.362;-1.302;2022-07-10T02:13:32;1.83;;;0.80;;
48651;SDS011;34442;52.362;-1.302;2022-07-10T02:15:58;1.90;;;1.00;;
48651;SDS011;34442;52.362;-1.302;2022-07-10T02:18:25;1.52;;;1.10;;
48651;SDS011;34442;52.362;-1.302;2022-07-10T02:20:51;2.20;;;1.20;;
48651;SDS011;34442;52.362;-1.302;2022-07-10T02:23:18;1.98;;;1.05;;
48651;SDS011;34442;52.362;-1.302;2022-07-10T02:25:44;2.05;;;1.10;;
48651;SDS011;34442;52.362;-1.302;2022-07-10T02:28:10;1.05;;;0.90;;
48651;SDS011;34442;52.362;-1.302;2022-07-10T02:30:36;2.72;;;1.10;;
48651;SDS011;34442;52.362;-1.302;2022-07-10T02:33:03;1.48;;;1.00;;
48651;SDS011;34442;52.362;-1.302;2022-07-10T02:35:29;1.77;;;1.00;;
48651;SDS011;34442;52.362;-1.302;2022-07-10T02:37:55;2.25;;;1.20;;
48651;SDS011;34442;52.362;-1.302;2022-07-10T02:40:21;2.17;;;1.05;;
48651;SDS011;34442;52.362;-1.302;2022-07-10T02:42:47;1.98;;;1.05;;
48651;SDS011;34442;52.362;-1.302;2022-07-10T02:45:13;2.47;;;1.30;;
48651;SDS011;34442;52.362;-1.302;2022-07-10T02:47:39;2.28;;;1.20;;
48651;SDS011;34442;52.362;-1.302;2022-07-10T02:50:05;2.25;;;1.33;;
48651;SDS011;34442;52.362;-1.302;2022-07-10T02:52:32;2.58;;;1.30;;
48651;SDS011;34442;52.362;-1.302;2022-07-10T02:54:58;3.10;;;1.52;;
48651;SDS011;34442;52.362;-1.302;2022-07-10T02:57:24;2.60;;;1.40;;
48651;SDS011;34442;52.362;-1.302;2022-07-10T02:59:50;1.60;;;1.13;;
48651;SDS011;34442;52.362;-1.302;2022-07-10T03:02:16;2.22;;;1.20;;
48651;SDS011;34442;52.362;-1.302;2022-07-10T03:04:43;1.55;;;1.00;;
48651;SDS011;34442;52.362;-1.302;2022-07-10T03:07:09;1.48;;;1.00;;
48651;SDS011;34442;52.362;-1.302;2022-07-10T03:09:35;1.92;;;1.02;;
48651;SDS011;34442;52.362;-1.302;2022-07-10T03:12:01;2.13;;;1.10;;
48651;SDS011;34442;52.362;-1.302;2022-07-10T03:14:27;1.60;;;1.00;;
48651;SDS011;34442;52.362;-1.302;2022-07-10T03:16:53;2.50;;;1.20;;
48651;SDS011;34442;52.362;-1.302;2022-07-10T03:19:19;1.80;;;1.08;;
48651;SDS011;34442;52.362;-1.302;2022-07-10T03:21:45;1.65;;;1.15;;
48651;SDS011;34442;52.362;-1.302;2022-07-10T03:24:11;2.35;;;1.13;;
48651;SDS011;34442;52.362;-1.302;2022-07-10T03:26:37;1.73;;;1.05;;
48651;SDS011;34442;52.362;-1.302;2022-07-10T03:29:03;1.73;;;1.10;;
48651;SDS011;34442;52.362;-1.302;2022-07-10T03:31:29;1.77;;;0.93;;
48651;SDS011;34442;52.362;-1.302;2022-07-10T03:33:55;2.50;;;1.13;;
48651;SDS011;34442;52.362;-1.302;2022-07-10T03:36:21;2.00;;;1.15;;
48651;SDS011;34442;52.362;-1.302;2022-07-10T03:38:47;1.95;;;1.15;;
48651;SDS011;34442;52.362;-1.302;2022-07-10T03:41:14;2.13;;;1.10;;
48651;SDS011;34442;52.362;-1.302;2022-07-10T03:43:40;1.40;;;1.05;;
48651;SDS011;34442;52.362;-1.302;2022-07-10T03:46:06;1.60;;;1.10;;
48651;SDS011;34442;52.362;-1.302;2022-07-10T03:48:32;2.53;;;1.20;;
48651;SDS011;34442;52.362;-1.302;2022-07-10T03:50:59;2.42;;;1.20;;
48651;SDS011;34442;52.362;-1.302;2022-07-10T03:53:26;2.08;;;1.20;;
48651;SDS011;34442;52.362;-1.302;2022-07-10T03:55:53;1.42;;;1.02;;
48651;SDS011;34442;52.362;-1.302;2022-07-10T03:58:20;1.70;;;1.17;;
48651;SDS011;34442;52.362;-1.302;2022-07-10T04:00:46;2.45;;;1.20;;
48651;SDS011;34442;52.362;-1.302;2022-07-10T04:03:12;1.95;;;0.95;;
48651;SDS011;34442;52.362;-1.302;2022-07-10T04:05:39;2.08;;;1.20;;
48651;SDS011;34442;52.362;-1.302;2022-07-10T04:08:05;2.03;;;1.25;;
48651;SDS011;34442;52.362;-1.302;2022-07-10T04:10:32;2.63;;;1.30;;
48651;SDS011;34442;52.362;-1.302;2022-07-10T04:12:58;1.90;;;1.10;;
48651;SDS011;34442;52.362;-1.302;2022-07-10T04:15:25;1.95;;;1.08;;
48651;SDS011;34442;52.362;-1.302;2022-07-10T04:17:51;1.60;;;1.00;;
48651;SDS011;34442;52.362;-1.302;2022-07-10T04:20:18;2.42;;;1.27;;
48651;SDS011;34442;52.362;-1.302;2022-07-10T04:22:44;1.63;;;1.00;;
48651;SDS011;34442;52.362;-1.302;2022-07-10T04:25:11;1.33;;;0.90;;
48651;SDS011;34442;52.362;-1.302;2022-07-10T04:27:37;2.03;;;1.05;;
48651;SDS011;34442;52.362;-1.302;2022-07-10T04:30:04;1.75;;;1.00;;
48651;SDS011;34442;52.362;-1.302;2022-07-10T04:32:31;2.13;;;1.10;;
48651;SDS011;34442;52.362;-1.302;2022-07-10T04:34:57;2.10;;;1.30;;
48651;SDS011;34442;52.362;-1.302;2022-07-10T04:37:24;2.00;;;1.17;;
48651;SDS011;34442;52.362;-1.302;2022-07-10T04:39:50;2.15;;;1.00;;
48651;SDS011;34442;52.362;-1.302;2022-07-10T04:42:16;1.25;;;0.80;;
48651;SDS011;34442;52.362;-1.302;2022-07-10T04:44:42;2.00;;;1.10;;
48651;SDS011;34442;52.362;-1.302;2022-07-10T04:47:08;2.15;;;1.00;;
48651;SDS011;34442;52.362;-1.302;2022-07-10T04:49:34;1.52;;;0.90;;
48651;SDS011;34442;52.362;-1.302;2022-07-10T04:52:01;1.67;;;1.10;;
48651;SDS011;34442;52.362;-1.302;2022-07-10T04:54:27;1.45;;;0.98;;
48651;SDS011;34442;52.362;-1.302;2022-07-10T04:56:53;2.13;;;1.23;;
48651;SDS011;34442;52.362;-1.302;2022-07-10T04:59:19;2.75;;;1.40;;
48651;SDS011;34442;52.362;-1.302;2022-07-10T05:01:45;1.52;;;1.08;;
48651;SDS011;34442;52.362;-1.302;2022-07-10T05:04:11;2.58;;;1.33;;
48651;SDS011;34442;52.362;-1.302;2022-07-10T05:06:37;1.67;;;1.10;;
48651;SDS011;34442;52.362;-1.302;2022-07-10T05:09:03;2.17;;;1.13;;
48651;SDS011;34442;52.362;-1.302;2022-07-10T05:11:29;2.90;;;1.33;;
48651;SDS011;34442;52.362;-1.302;2022-07-10T05:13:57;2.40;;;1.25;;
48651;SDS011;34442;52.362;-1.302;2022-07-10T05:16:24;1.48;;;1.10;;
48651;SDS011;34442;52.362;-1.302;2022-07-10T05:18:50;2.40;;;1.10;;
48651;SDS011;34442;52.362;-1.302;2022-07-10T05:21:16;1.35;;;1.00;;
48651;SDS011;34442;52.362;-1.302;2022-07-10T05:23:43;2.08;;;1.10;;
48651;SDS011;34442;52.362;-1.302;2022-07-10T05:26:09;2.10;;;1.13;;
48651;SDS011;34442;52.362;-1.302;2022-07-10T05:28:35;2.20;;;1.30;;
48651;SDS011;34442;52.362;-1.302;2022-07-10T05:31:01;1.95;;;1.13;;
48651;SDS011;34442;52.362;-1.302;2022-07-10T05:33:28;2.72;;;1.50;;
48651;SDS011;34442;52.362;-1.302;2022-07-10T05:35:54;1.50;;;1.10;;
48651;SDS011;34442;52.362;-1.302;2022-07-10T05:38:21;3.35;;;1.38;;
48651;SDS011;34442;52.362;-1.302;2022-07-10T05:40:47;1.90;;;1.13;;
48651;SDS011;34442;52.362;-1.302;2022-07-10T05:43:14;2.20;;;1.25;;
48651;SDS011;34442;52.362;-1.302;2022-07-10T05:45:40;1.58;;;1.10;;
48651;SDS011;34442;52.362;-1.302;2022-07-10T05:48:06;1.90;;;1.10;;
48651;SDS011;34442;52.362;-1.302;2022-07-10T05:50:32;2.00;;;1.10;;
48651;SDS011;34442;52.362;-1.302;2022-07-10T05:52:58;1.80;;;1.13;;
48651;SDS011;34442;52.362;-1.302;2022-07-10T05:55:25;1.52;;;1.10;;
48651;SDS011;34442;52.362;-1.302;2022-07-10T05:57:51;2.10;;;1.17;;
48651;SDS011;34442;52.362;-1.302;2022-07-10T06:00:17;2.72;;;1.33;;
48651;SDS011;34442;52.362;-1.302;2022-07-10T06:02:43;2.20;;;1.20;;
48651;SDS011;34442;52.362;-1.302;2022-07-10T06:05:09;2.35;;;1.23;;
48651;SDS011;34442;52.362;-1.302;2022-07-10T06:07:35;2.55;;;1.30;;
48651;SDS011;34442;52.362;-1.302;2022-07-10T06:10:02;1.73;;;0.95;;
48651;SDS011;34442;52.362;-1.302;2022-07-10T06:12:31;2.55;;;1.00;;
48651;SDS011;34442;52.362;-1.302;2022-07-10T06:14:57;2.35;;;1.35;;
48651;SDS011;34442;52.362;-1.302;2022-07-10T06:17:23;2.42;;;1.15;;
48651;SDS011;34442;52.362;-1.302;2022-07-10T06:19:49;3.25;;;1.30;;
48651;SDS011;34442;52.362;-1.302;2022-07-10T06:22:15;2.78;;;1.20;;
48651;SDS011;34442;52.362;-1.302;2022-07-10T06:24:57;2.53;;;1.40;;
48651;SDS011;34442;52.362;-1.302;2022-07-10T06:27:25;2.45;;;1.35;;
48651;SDS011;34442;52.362;-1.302;2022-07-10T06:29:51;1.48;;;1.08;;
48651;SDS011;34442;52.362;-1.302;2022-07-10T06:32:17;1.70;;;0.88;;
48651;SDS011;34442;52.362;-1.302;2022-07-10T06:34:43;2.42;;;1.10;;
48651;SDS011;34442;52.362;-1.302;2022-07-10T06:37:10;2.10;;;1.30;;
48651;SDS011;34442;52.362;-1.302;2022-07-10T06:39:36;1.17;;;0.85;;
48651;SDS011;34442;52.362;-1.302;2022-07-10T06:42:05;1.77;;;1.10;;
48651;SDS011;34442;52.362;-1.302;2022-07-10T06:44:31;1.35;;;0.95;;
48651;SDS011;34442;52.362;-1.302;2022-07-10T06:46:58;2.10;;;1.10;;
48651;SDS011;34442;52.362;-1.302;2022-07-10T06:49:45;1.85;;;1.10;;
48651;SDS011;34442;52.362;-1.302;2022-07-10T06:52:14;1.98;;;1.20;;
48651;SDS011;34442;52.362;-1.302;2022-07-10T06:54:40;1.58;;;0.98;;
48651;SDS011;34442;52.362;-1.302;2022-07-10T06:57:07;2.50;;;1.20;;
48651;SDS011;34442;52.362;-1.302;2022-07-10T06:59:33;2.42;;;1.25;;
48651;SDS011;34442;52.362;-1.302;2022-07-10T07:01:59;1.17;;;1.00;;
48651;SDS011;34442;52.362;-1.302;2022-07-10T07:04:25;2.47;;;1.10;;
48651;SDS011;34442;52.362;-1.302;2022-07-10T07:06:51;1.52;;;1.10;;
48651;SDS011;34442;52.362;-1.302;2022-07-10T07:09:17;1.42;;;0.90;;
48651;SDS011;34442;52.362;-1.302;2022-07-10T07:11:43;1.38;;;0.80;;
48651;SDS011;34442;52.362;-1.302;2022-07-10T07:14:10;1.80;;;1.00;;
48651;SDS011;34442;52.362;-1.302;2022-07-10T07:16:36;1.15;;;0.82;;
48651;SDS011;34442;52.362;-1.302;2022-07-10T07:19:10;1.45;;;0.95;;
48651;SDS011;34442;52.362;-1.302;2022-07-10T07:21:37;0.80;;;0.70;;
48651;SDS011;34442;52.362;-1.302;2022-07-10T07:24:22;2.17;;;1.08;;
48651;SDS011;34442;52.362;-1.302;2022-07-10T07:26:48;1.17;;;0.80;;
48651;SDS011;34442;52.362;-1.302;2022-07-10T07:29:15;0.95;;;0.70;;
48651;SDS011;34442;52.362;-1.302;2022-07-10T07:31:41;0.88;;;0.80;;
48651;SDS011;34442;52.362;-1.302;2022-07-10T07:34:08;1.20;;;0.73;;
48651;SDS011;34442;52.362;-1.302;2022-07-10T07:36:34;1.48;;;0.70;;
48651;SDS011;34442;52.362;-1.302;2022-07-10T07:39:00;1.17;;;0.68;;
48651;SDS011;34442;52.362;-1.302;2022-07-10T07:41:27;0.80;;;0.70;;
48651;SDS011;34442;52.362;-1.302;2022-07-10T07:43:53;0.60;;;0.60;;
48651;SDS011;34442;52.362;-1.302;2022-07-10T07:46:19;0.50;;;0.50;;
48651;SDS011;34442;52.362;-1.302;2022-07-10T07:48:46;1.17;;;0.90;;
48651;SDS011;34442;52.362;-1.302;2022-07-10T07:51:12;0.82;;;0.80;;
48651;SDS011;34442;52.362;-1.302;2022-07-10T07:53:39;1.42;;;0.98;;
48651;SDS011;34442;52.362;-1.302;2022-07-10T07:56:05;1.65;;;0.98;;
48651;SDS011;34442;52.362;-1.302;2022-07-10T07:58:31;1.35;;;0.70;;
48651;SDS011;34442;52.362;-1.302;2022-07-10T08:00:58;0.90;;;0.68;;
48651;SDS011;34442;52.362;-1.302;2022-07-10T08:03:24;1.23;;;0.93;;
48651;SDS011;34442;52.362;-1.302;2022-07-10T08:05:50;1.30;;;0.70;;
48651;SDS011;34442;52.362;-1.302;2022-07-10T08:08:16;1.17;;;0.73;;
48651;SDS011;34442;52.362;-1.302;2022-07-10T08:10:42;0.60;;;0.57;;
48651;SDS011;34442;52.362;-1.302;2022-07-10T08:13:08;1.48;;;0.60;;
48651;SDS011;34442;52.362;-1.302;2022-07-10T08:15:34;1.20;;;0.80;;
48651;SDS011;34442;52.362;-1.302;2022-07-10T08:18:01;1.05;;;0.90;;
48651;SDS011;34442;52.362;-1.302;2022-07-10T08:20:29;1.05;;;0.73;;
48651;SDS011;34442;52.362;-1.302;2022-07-10T08:22:56;1.08;;;0.73;;
48651;SDS011;34442;52.362;-1.302;2022-07-10T08:25:23;0.75;;;0.75;;
48651;SDS011;34442;52.362;-1.302;2022-07-10T08:27:50;1.20;;;0.73;;
48651;SDS011;34442;52.362;-1.302;2022-07-10T08:30:16;0.77;;;0.65;;
48651;SDS011;34442;52.362;-1.302;2022-07-10T08:32:42;0.80;;;0.80;;
48651;SDS011;34442;52.362;-1.302;2022-07-10T08:35:09;1.42;;;0.85;;
48651;SDS011;34442;52.362;-1.302;2022-07-10T08:37:42;0.95;;;0.73;;
48651;SDS011;34442;52.362;-1.302;2022-07-10T08:40:11;1.33;;;0.80;;
48651;SDS011;34442;52.362;-1.302;2022-07-10T08:42:39;1.55;;;0.95;;
48651;SDS011;34442;52.362;-1.302;2022-07-10T08:45:06;2.15;;;0.98;;
48651;SDS011;34442;52.362;-1.302;2022-07-10T08:47:36;3.70;;;0.90;;
48651;SDS011;34442;52.362;-1.302;2022-07-10T08:50:04;1.88;;;0.90;;
48651;SDS011;34442;52.362;-1.302;2022-07-10T08:52:36;1.00;;;0.60;;
48651;SDS011;34442;52.362;-1.302;2022-07-10T08:55:08;1.65;;;0.88;;
48651;SDS011;34442;52.362;-1.302;2022-07-10T08:57:38;2.05;;;0.73;;
48651;SDS011;34442;52.362;-1.302;2022-07-10T09:00:06;1.33;;;0.75;;
48651;SDS011;34442;52.362;-1.302;2022-07-10T09:02:33;2.38;;;1.20;;
48651;SDS011;34442;52.362;-1.302;2022-07-10T09:04:59;1.63;;;0.93;;
48651;SDS011;34442;52.362;-1.302;2022-07-10T09:07:26;1.17;;;0.68;;
48651;SDS011;34442;52.362;-1.302;2022-07-10T09:10:04;1.35;;;0.77;;
48651;SDS011;34442;52.362;-1.302;2022-07-10T09:12:50;1.30;;;0.70;;
48651;SDS011;34442;52.362;-1.302;2022-07-10T09:15:19;1.00;;;0.70;;
48651;SDS011;34442;52.362;-1.302;2022-07-10T09:17:51;0.90;;;0.52;;
48651;SDS011;34442;52.362;-1.302;2022-07-10T09:22:53;0.80;;;0.60;;
48651;SDS011;34442;52.362;-1.302;2022-07-10T09:25:19;1.60;;;1.02;;
48651;SDS011;34442;52.362;-1.302;2022-07-10T09:27:52;1.77;;;0.90;;
48651;SDS011;34442;52.362;-1.302;2022-07-10T09:30:34;1.70;;;0.85;;
48651;SDS011;34442;52.362;-1.302;2022-07-10T09:46:38;1.50;;;0.80;;
48651;SDS011;34442;52.362;-1.302;2022-07-10T09:51:33;1.42;;;0.88;;
48651;SDS011;34442;52.362;-1.302;2022-07-10T09:54:02;1.67;;;0.80;;
48651;SDS011;34442;52.362;-1.302;2022-07-10T09:56:32;1.15;;;0.70;;
48651;SDS011;34442;52.362;-1.302;2022-07-10T09:59:00;0.60;;;0.60;;
48651;SDS011;34442;52.362;-1.302;2022-07-10T10:01:27;0.40;;;0.40;;
48651;SDS011;34442;52.362;-1.302;2022-07-10T10:03:54;0.98;;;0.68;;
48651;SDS011;34442;52.362;-1.302;2022-07-10T10:06:26;1.17;;;0.65;;
48651;SDS011;34442;52.362;-1.302;2022-07-10T10:09:00;2.22;;;1.13;;
48651;SDS011;34442;52.362;-1.302;2022-07-10T10:11:33;0.88;;;0.70;;
48651;SDS011;34442;52.362;-1.302;2022-07-10T10:14:02;0.80;;;0.60;;
48651;SDS011;34442;52.362;-1.302;2022-07-10T10:16:32;1.55;;;0.73;;
48651;SDS011;34442;52.362;-1.302;2022-07-10T10:18:59;0.75;;;0.65;;
48651;SDS011;34442;52.362;-1.302;2022-07-10T10:21:46;0.98;;;0.80;;
48651;SDS011;34442;52.362;-1.302;2022-07-10T10:24:12;1.23;;;0.70;;
48651;SDS011;34442;52.362;-1.302;2022-07-10T10:26:40;1.45;;;0.80;;
48651;SDS011;34442;52.362;-1.302;2022-07-10T10:29:07;0.95;;;0.63;;
48651;SDS011;34442;52.362;-1.302;2022-07-10T10:31:35;3.42;;;1.25;;
48651;SDS011;34442;52.362;-1.302;2022-07-10T10:34:01;1.63;;;0.90;;
48651;SDS011;34442;52.362;-1.302;2022-07-10T10:39:09;1.27;;;0.80;;
48651;SDS011;34442;52.362;-1.302;2022-07-10T10:41:37;1.15;;;0.80;;
48651;SDS011;34442;52.362;-1.302;2022-07-10T10:49:20;1.70;;;0.68;;
48651;SDS011;34442;52.362;-1.302;2022-07-10T10:52:01;0.75;;;0.50;;
48651;SDS011;34442;52.362;-1.302;2022-07-10T10:59:57;1.55;;;0.80;;
48651;SDS011;34442;52.362;-1.302;2022-07-10T11:02:31;1.77;;;0.90;;
48651;SDS011;34442;52.362;-1.302;2022-07-10T11:07:53;0.50;;;0.50;;
48651;SDS011;34442;52.362;-1.302;2022-07-10T11:13:06;1.23;;;0.70;;
48651;SDS011;34442;52.362;-1.302;2022-07-10T11:15:43;0.85;;;0.60;;
48651;SDS011;34442;52.362;-1.302;2022-07-10T11:18:12;1.00;;;0.55;;
48651;SDS011;34442;52.362;-1.302;2022-07-10T11:31:09;1.38;;;0.82;;
48651;SDS011;34442;52.362;-1.302;2022-07-10T11:33:39;0.77;;;0.63;;
48651;SDS011;34442;52.362;-1.302;2022-07-10T11:36:11;0.77;;;0.70;;
48651;SDS011;34442;52.362;-1.302;2022-07-10T11:38:39;0.93;;;0.77;;
48651;SDS011;34442;52.362;-1.302;2022-07-10T11:41:16;0.77;;;0.45;;
48651;SDS011;34442;52.362;-1.302;2022-07-10T11:43:50;0.90;;;0.60;;
48651;SDS011;34442;52.362;-1.302;2022-07-10T11:46:21;0.60;;;0.52;;
48651;SDS011;34442;52.362;-1.302;2022-07-10T11:48:50;0.70;;;0.55;;
48651;SDS011;34442;52.362;-1.302;2022-07-10T11:51:22;1.88;;;0.80;;
48651;SDS011;34442;52.362;-1.302;2022-07-10T11:58:57;0.80;;;0.50;;
48651;SDS011;34442;52.362;-1.302;2022-07-10T12:01:45;1.02;;;0.80;;
48651;SDS011;34442;52.362;-1.302;2022-07-10T12:04:16;0.95;;;0.60;;
48651;SDS011;34442;52.362;-1.302;2022-07-10T12:06:47;1.48;;;0.60;;
48651;SDS011;34442;52.362;-1.302;2022-07-10T12:09:14;0.68;;;0.55;;
48651;SDS011;34442;52.362;-1.302;2022-07-10T12:11:42;1.05;;;0.63;;
48651;SDS011;34442;52.362;-1.302;2022-07-10T12:14:13;0.75;;;0.55;;
48651;SDS011;34442;52.362;-1.302;2022-07-10T12:16:44;0.85;;;0.73;;
48651;SDS011;34442;52.362;-1.302;2022-07-10T12:19:17;0.93;;;0.68;;
48651;SDS011;34442;52.362;-1.302;2022-07-10T12:21:46;0.55;;;0.55;;
48651;SDS011;34442;52.362;-1.302;2022-07-10T12:24:15;1.73;;;0.93;;
48651;SDS011;34442;52.362;-1.302;2022-07-10T12:26:43;1.33;;;0.80;;
48651;SDS011;34442;52.362;-1.302;2022-07-10T12:29:19;1.27;;;0.90;;
48651;SDS011;34442;52.362;-1.302;2022-07-10T12:31:51;1.00;;;0.70;;
48651;SDS011;34442;52.362;-1.302;2022-07-10T12:34:20;1.50;;;0.80;;
48651;SDS011;34442;52.362;-1.302;2022-07-10T12:37:12;1.05;;;0.70;;
48651;SDS011;34442;52.362;-1.302;2022-07-10T12:39:46;1.27;;;0.80;;
48651;SDS011;34442;52.362;-1.302;2022-07-10T12:42:23;1.17;;;0.77;;
48651;SDS011;34442;52.362;-1.302;2022-07-10T12:44:53;0.82;;;0.68;;
48651;SDS011;34442;52.362;-1.302;2022-07-10T12:47:20;0.88;;;0.65;;
48651;SDS011;34442;52.362;-1.302;2022-07-10T12:49:50;0.95;;;0.65;;
48651;SDS011;34442;52.362;-1.302;2022-07-10T12:52:37;0.75;;;0.57;;
48651;SDS011;34442;52.362;-1.302;2022-07-10T12:55:10;1.05;;;0.60;;
48651;SDS011;34442;52.362;-1.302;2022-07-10T12:57:51;1.05;;;0.70;;
48651;SDS011;34442;52.362;-1.302;2022-07-10T13:00:20;2.20;;;1.00;;
48651;SDS011;34442;52.362;-1.302;2022-07-10T13:02:48;2.03;;;1.13;;
48651;SDS011;34442;52.362;-1.302;2022-07-10T13:05:26;1.83;;;1.23;;
48651;SDS011;34442;52.362;-1.302;2022-07-10T13:08:17;1.65;;;1.05;;
48651;SDS011;34442;52.362;-1.302;2022-07-10T13:10:52;1.70;;;0.95;;
48651;SDS011;34442;52.362;-1.302;2022-07-10T13:13:19;1.92;;;1.00;;
48651;SDS011;34442;52.362;-1.302;2022-07-10T13:15:45;1.73;;;0.90;;
48651;SDS011;34442;52.362;-1.302;2022-07-10T13:18:16;1.15;;;0.70;;
48651;SDS011;34442;52.362;-1.302;2022-07-10T13:20:43;2.25;;;1.05;;
48651;SDS011;34442;52.362;-1.302;2022-07-10T13:23:10;2.30;;;0.90;;
48651;SDS011;34442;52.362;-1.302;2022-07-10T13:25:37;5.15;;;2.28;;
48651;SDS011;34442;52.362;-1.302;2022-07-10T13:28:06;4.00;;;1.92;;
48651;SDS011;34442;52.362;-1.302;2022-07-10T13:30:35;3.25;;;1.50;;
48651;SDS011;34442;52.362;-1.302;2022-07-10T13:33:01;2.92;;;1.35;;
48651;SDS011;34442;52.362;-1.302;2022-07-10T13:35:28;2.47;;;1.20;;
48651;SDS011;34442;52.362;-1.302;2022-07-10T13:37:55;2.15;;;1.10;;
48651;SDS011;34442;52.362;-1.302;2022-07-10T13:40:28;2.00;;;1.00;;
48651;SDS011;34442;52.362;-1.302;2022-07-10T13:42:56;1.85;;;0.88;;
48651;SDS011;34442;52.362;-1.302;2022-07-10T13:45:23;1.10;;;0.93;;
48651;SDS011;34442;52.362;-1.302;2022-07-10T13:48:04;1.38;;;0.80;;
48651;SDS011;34442;52.362;-1.302;2022-07-10T13:50:31;1.30;;;0.68;;
48651;SDS011;34442;52.362;-1.302;2022-07-10T13:52:58;1.33;;;0.85;;
48651;SDS011;34442;52.362;-1.302;2022-07-10T13:55:24;1.67;;;0.82;;
48651;SDS011;34442;52.362;-1.302;2022-07-10T13:57:50;0.65;;;0.55;;
48651;SDS011;34442;52.362;-1.302;2022-07-10T14:00:16;1.58;;;0.75;;
48651;SDS011;34442;52.362;-1.302;2022-07-10T14:02:42;0.70;;;0.52;;
48651;SDS011;34442;52.362;-1.302;2022-07-10T14:05:08;1.25;;;0.68;;
48651;SDS011;34442;52.362;-1.302;2022-07-10T14:07:34;0.68;;;0.50;;
48651;SDS011;34442;52.362;-1.302;2022-07-10T14:10:00;0.85;;;0.50;;
48651;SDS011;34442;52.362;-1.302;2022-07-10T14:12:27;0.60;;;0.60;;
48651;SDS011;34442;52.362;-1.302;2022-07-10T14:14:53;0.77;;;0.50;;
48651;SDS011;34442;52.362;-1.302;2022-07-10T14:17:20;0.65;;;0.60;;
48651;SDS011;34442;52.362;-1.302;2022-07-10T14:19:46;0.82;;;0.50;;
48651;SDS011;34442;52.362;-1.302;2022-07-10T14:22:12;0.77;;;0.55;;
48651;SDS011;34442;52.362;-1.302;2022-07-10T14:24:38;0.73;;;0.50;;
48651;SDS011;34442;52.362;-1.302;2022-07-10T14:27:04;0.85;;;0.60;;
48651;SDS011;34442;52.362;-1.302;2022-07-10T14:29:31;0.60;;;0.50;;
48651;SDS011;34442;52.362;-1.302;2022-07-10T14:31:57;0.65;;;0.60;;
48651;SDS011;34442;52.362;-1.302;2022-07-10T14:34:24;1.30;;;0.82;;
48651;SDS011;34442;52.362;-1.302;2022-07-10T14:36:50;1.23;;;0.73;;
48651;SDS011;34442;52.362;-1.302;2022-07-10T14:39:17;0.82;;;0.60;;
48651;SDS011;34442;52.362;-1.302;2022-07-10T14:41:43;1.08;;;0.68;;
48651;SDS011;34442;52.362;-1.302;2022-07-10T14:44:09;1.23;;;0.70;;
48651;SDS011;34442;52.362;-1.302;2022-07-10T14:46:35;1.13;;;0.65;;
48651;SDS011;34442;52.362;-1.302;2022-07-10T14:49:01;1.27;;;0.85;;
48651;SDS011;34442;52.362;-1.302;2022-07-10T14:51:27;1.55;;;0.93;;
48651;SDS011;34442;52.362;-1.302;2022-07-10T14:53:54;1.08;;;0.60;;
48651;SDS011;34442;52.362;-1.302;2022-07-10T14:56:22;0.73;;;0.60;;
48651;SDS011;34442;52.362;-1.302;2022-07-10T14:58:49;0.93;;;0.47;;
48651;SDS011;34442;52.362;-1.302;2022-07-10T15:01:15;0.85;;;0.73;;
48651;SDS011;34442;52.362;-1.302;2022-07-10T15:03:41;0.55;;;0.52;;
48651;SDS011;34442;52.362;-1.302;2022-07-10T15:06:08;1.00;;;0.55;;
48651;SDS011;34442;52.362;-1.302;2022-07-10T15:08:34;0.65;;;0.50;;
48651;SDS011;34442;52.362;-1.302;2022-07-10T15:11:00;0.50;;;0.50;;
48651;SDS011;34442;52.362;-1.302;2022-07-10T15:13:28;0.93;;;0.47;;
48651;SDS011;34442;52.362;-1.302;2022-07-10T15:15:54;1.00;;;0.60;;
48651;SDS011;34442;52.362;-1.302;2022-07-10T15:18:20;1.02;;;0.70;;
48651;SDS011;34442;52.362;-1.302;2022-07-10T15:20:47;0.73;;;0.45;;
48651;SDS011;34442;52.362;-1.302;2022-07-10T15:23:13;1.20;;;0.80;;
48651;SDS011;34442;52.362;-1.302;2022-07-10T15:25:40;0.93;;;0.80;;
48651;SDS011;34442;52.362;-1.302;2022-07-10T15:28:09;1.23;;;0.75;;
48651;SDS011;34442;52.362;-1.302;2022-07-10T15:30:37;1.88;;;0.90;;